sensor_id;sensor_type;location;lat;lon;timestamp;P1;durP1;ratioP1;P2;durP2;ratioP2
75593;SDS011;64176;49.156;7.810;2023-02-16T00:00:47;37.72;;;21.90;;
75593;SDS011;64176;49.156;7.810;2023-02-16T00:03:34;27.63;;;16.25;;
75593;SDS011;64176;49.156;7.810;2023-02-16T00:06:18;27.40;;;15.20;;
75593;SDS011;64176;49.156;7.810;2023-02-16T00:09:02;27.13;;;16.20;;
75593;SDS011;64176;49.156;7.810;2023-02-16T00:11:47;22.80;;;13.95;;
75593;SDS011;64176;49.156;7.810;2023-02-16T00:14:51;27.98;;;16.30;;
75593;SDS011;64176;49.156;7.810;2023-02-16T00:17:35;26.15;;;15.32;;
75593;SDS011;64176;49.156;7.810;2023-02-16T00:20:19;28.20;;;16.02;;
75593;SDS011;64176;49.156;7.810;2023-02-16T00:23:02;33.88;;;18.40;;
75593;SDS011;64176;49.156;7.810;2023-02-16T00:25:47;32.08;;;19.60;;
75593;SDS011;64176;49.156;7.810;2023-02-16T00:28:30;31.90;;;18.88;;
75593;SDS011;64176;49.156;7.810;2023-02-16T00:31:18;32.45;;;20.08;;
75593;SDS011;64176;49.156;7.810;2023-02-16T00:37:14;27.92;;;16.92;;
75593;SDS011;64176;49.156;7.810;2023-02-16T00:40:01;35.30;;;19.52;;
75593;SDS011;64176;49.156;7.810;2023-02-16T00:42:51;32.67;;;18.27;;
75593;SDS011;64176;49.156;7.810;2023-02-16T00:45:36;32.35;;;19.75;;
75593;SDS011;64176;49.156;7.810;2023-02-16T00:48:23;32.85;;;18.33;;
75593;SDS011;64176;49.156;7.810;2023-02-16T00:51:10;32.38;;;19.13;;
75593;SDS011;64176;49.156;7.810;2023-02-16T00:53:57;30.50;;;17.95;;
75593;SDS011;64176;49.156;7.810;2023-02-16T00:56:41;26.20;;;18.83;;
75593;SDS011;64176;49.156;7.810;2023-02-16T00:59:26;27.45;;;18.02;;
75593;SDS011;64176;49.156;7.810;2023-02-16T01:02:18;27.42;;;16.15;;
75593;SDS011;64176;49.156;7.810;2023-02-16T01:05:04;31.38;;;19.20;;
75593;SDS011;64176;49.156;7.810;2023-02-16T01:07:49;33.28;;;17.90;;
75593;SDS011;64176;49.156;7.810;2023-02-16T01:10:54;36.20;;;18.60;;
75593;SDS011;64176;49.156;7.810;2023-02-16T01:13:53;32.53;;;20.05;;
75593;SDS011;64176;49.156;7.810;2023-02-16T01:16:39;35.80;;;17.02;;
75593;SDS011;64176;49.156;7.810;2023-02-16T01:19:27;33.08;;;17.13;;
75593;SDS011;64176;49.156;7.810;2023-02-16T01:22:11;28.98;;;17.15;;
75593;SDS011;64176;49.156;7.810;2023-02-16T01:24:58;24.10;;;16.17;;
75593;SDS011;64176;49.156;7.810;2023-02-16T01:27:42;29.60;;;15.57;;
75593;SDS011;64176;49.156;7.810;2023-02-16T01:30:32;23.42;;;14.65;;
75593;SDS011;64176;49.156;7.810;2023-02-16T01:33:17;29.55;;;16.75;;
75593;SDS011;64176;49.156;7.810;2023-02-16T01:39:05;34.08;;;19.83;;
75593;SDS011;64176;49.156;7.810;2023-02-16T01:42:52;29.70;;;18.63;;
75593;SDS011;64176;49.156;7.810;2023-02-16T01:45:31;26.67;;;16.73;;
75593;SDS011;64176;49.156;7.810;2023-02-16T01:48:27;27.55;;;15.85;;
75593;SDS011;64176;49.156;7.810;2023-02-16T01:54:21;21.67;;;13.77;;
75593;SDS011;64176;49.156;7.810;2023-02-16T01:57:37;28.00;;;16.40;;
75593;SDS011;64176;49.156;7.810;2023-02-16T02:03:42;25.92;;;14.88;;
75593;SDS011;64176;49.156;7.810;2023-02-16T02:06:44;27.20;;;16.52;;
75593;SDS011;64176;49.156;7.810;2023-02-16T02:09:34;25.08;;;17.65;;
75593;SDS011;64176;49.156;7.810;2023-02-16T02:12:36;27.65;;;16.17;;
75593;SDS011;64176;49.156;7.810;2023-02-16T02:15:31;25.77;;;15.65;;
75593;SDS011;64176;49.156;7.810;2023-02-16T02:18:16;25.02;;;14.32;;
75593;SDS011;64176;49.156;7.810;2023-02-16T02:30:18;24.45;;;13.95;;
75593;SDS011;64176;49.156;7.810;2023-02-16T02:36:35;23.08;;;14.55;;
75593;SDS011;64176;49.156;7.810;2023-02-16T02:39:30;22.30;;;14.73;;
75593;SDS011;64176;49.156;7.810;2023-02-16T02:42:30;24.00;;;14.98;;
75593;SDS011;64176;49.156;7.810;2023-02-16T02:45:22;24.17;;;14.95;;
75593;SDS011;64176;49.156;7.810;2023-02-16T02:48:09;33.03;;;15.35;;
75593;SDS011;64176;49.156;7.810;2023-02-16T02:51:15;27.58;;;15.40;;
75593;SDS011;64176;49.156;7.810;2023-02-16T02:54:33;25.17;;;14.93;;
75593;SDS011;64176;49.156;7.810;2023-02-16T02:57:40;21.50;;;14.45;;
75593;SDS011;64176;49.156;7.810;2023-02-16T03:00:52;31.13;;;13.93;;
75593;SDS011;64176;49.156;7.810;2023-02-16T03:03:42;23.58;;;14.82;;
75593;SDS011;64176;49.156;7.810;2023-02-16T03:06:39;21.83;;;13.50;;
75593;SDS011;64176;49.156;7.810;2023-02-16T03:09:28;24.70;;;14.90;;
75593;SDS011;64176;49.156;7.810;2023-02-16T03:12:12;24.02;;;14.32;;
75593;SDS011;64176;49.156;7.810;2023-02-16T03:15:16;19.02;;;13.30;;
75593;SDS011;64176;49.156;7.810;2023-02-16T03:18:06;25.20;;;16.10;;
75593;SDS011;64176;49.156;7.810;2023-02-16T03:21:13;23.73;;;13.93;;
75593;SDS011;64176;49.156;7.810;2023-02-16T03:24:19;25.27;;;14.07;;
75593;SDS011;64176;49.156;7.810;2023-02-16T03:27:27;19.55;;;12.35;;
75593;SDS011;64176;49.156;7.810;2023-02-16T03:30:34;21.88;;;13.05;;
75593;SDS011;64176;49.156;7.810;2023-02-16T03:33:19;23.52;;;14.05;;
75593;SDS011;64176;49.156;7.810;2023-02-16T03:38:53;21.38;;;13.02;;
75593;SDS011;64176;49.156;7.810;2023-02-16T03:41:40;23.58;;;13.85;;
75593;SDS011;64176;49.156;7.810;2023-02-16T03:44:31;24.70;;;16.60;;
75593;SDS011;64176;49.156;7.810;2023-02-16T03:47:17;21.95;;;15.23;;
75593;SDS011;64176;49.156;7.810;2023-02-16T03:50:04;20.05;;;12.73;;
75593;SDS011;64176;49.156;7.810;2023-02-16T03:52:49;20.92;;;13.93;;
75593;SDS011;64176;49.156;7.810;2023-02-16T03:55:40;23.63;;;14.27;;
75593;SDS011;64176;49.156;7.810;2023-02-16T03:58:25;24.45;;;13.75;;
75593;SDS011;64176;49.156;7.810;2023-02-16T04:01:09;23.63;;;13.57;;
75593;SDS011;64176;49.156;7.810;2023-02-16T04:03:53;25.83;;;14.57;;
75593;SDS011;64176;49.156;7.810;2023-02-16T04:06:37;21.80;;;13.43;;
75593;SDS011;64176;49.156;7.810;2023-02-16T04:09:21;24.17;;;14.15;;
75593;SDS011;64176;49.156;7.810;2023-02-16T04:12:08;23.48;;;14.95;;
75593;SDS011;64176;49.156;7.810;2023-02-16T04:15:17;22.50;;;15.27;;
75593;SDS011;64176;49.156;7.810;2023-02-16T04:18:08;22.38;;;13.90;;
75593;SDS011;64176;49.156;7.810;2023-02-16T04:20:52;21.27;;;13.93;;
75593;SDS011;64176;49.156;7.810;2023-02-16T04:23:37;21.95;;;13.48;;
75593;SDS011;64176;49.156;7.810;2023-02-16T04:26:23;19.40;;;11.88;;
75593;SDS011;64176;49.156;7.810;2023-02-16T04:29:10;23.05;;;13.48;;
75593;SDS011;64176;49.156;7.810;2023-02-16T04:31:57;20.65;;;12.25;;
75593;SDS011;64176;49.156;7.810;2023-02-16T04:34:43;20.65;;;13.10;;
75593;SDS011;64176;49.156;7.810;2023-02-16T04:37:28;22.20;;;13.65;;
75593;SDS011;64176;49.156;7.810;2023-02-16T04:40:12;20.10;;;13.13;;
75593;SDS011;64176;49.156;7.810;2023-02-16T04:43:03;21.95;;;13.10;;
75593;SDS011;64176;49.156;7.810;2023-02-16T04:45:49;21.48;;;13.30;;
75593;SDS011;64176;49.156;7.810;2023-02-16T04:48:33;19.25;;;13.00;;
75593;SDS011;64176;49.156;7.810;2023-02-16T04:51:20;20.55;;;11.82;;
75593;SDS011;64176;49.156;7.810;2023-02-16T04:54:07;25.63;;;14.80;;
75593;SDS011;64176;49.156;7.810;2023-02-16T04:56:52;22.60;;;13.60;;
75593;SDS011;64176;49.156;7.810;2023-02-16T04:59:38;26.25;;;14.52;;
75593;SDS011;64176;49.156;7.810;2023-02-16T05:02:25;18.45;;;13.27;;
75593;SDS011;64176;49.156;7.810;2023-02-16T05:05:08;19.40;;;13.25;;
75593;SDS011;64176;49.156;7.810;2023-02-16T05:07:57;19.42;;;12.30;;
75593;SDS011;64176;49.156;7.810;2023-02-16T05:10:44;21.73;;;13.05;;
75593;SDS011;64176;49.156;7.810;2023-02-16T05:13:31;20.98;;;14.75;;
75593;SDS011;64176;49.156;7.810;2023-02-16T05:16:34;24.67;;;13.52;;
75593;SDS011;64176;49.156;7.810;2023-02-16T05:19:23;22.27;;;14.00;;
75593;SDS011;64176;49.156;7.810;2023-02-16T05:22:07;25.02;;;15.05;;
75593;SDS011;64176;49.156;7.810;2023-02-16T05:24:54;21.40;;;14.07;;
75593;SDS011;64176;49.156;7.810;2023-02-16T05:27:38;27.38;;;15.90;;
75593;SDS011;64176;49.156;7.810;2023-02-16T05:30:24;22.75;;;15.43;;
75593;SDS011;64176;49.156;7.810;2023-02-16T05:33:11;23.65;;;13.20;;
75593;SDS011;64176;49.156;7.810;2023-02-16T05:35:55;21.42;;;14.05;;
75593;SDS011;64176;49.156;7.810;2023-02-16T05:38:39;22.33;;;13.23;;
75593;SDS011;64176;49.156;7.810;2023-02-16T05:41:25;20.05;;;12.35;;
75593;SDS011;64176;49.156;7.810;2023-02-16T05:44:09;20.92;;;13.02;;
75593;SDS011;64176;49.156;7.810;2023-02-16T05:46:56;23.30;;;13.43;;
75593;SDS011;64176;49.156;7.810;2023-02-16T05:49:43;21.73;;;13.15;;
75593;SDS011;64176;49.156;7.810;2023-02-16T05:52:27;23.90;;;14.40;;
75593;SDS011;64176;49.156;7.810;2023-02-16T05:55:13;21.55;;;14.65;;
75593;SDS011;64176;49.156;7.810;2023-02-16T05:58:02;27.63;;;16.13;;
75593;SDS011;64176;49.156;7.810;2023-02-16T06:00:46;27.98;;;16.67;;
75593;SDS011;64176;49.156;7.810;2023-02-16T06:03:33;20.88;;;14.50;;
75593;SDS011;64176;49.156;7.810;2023-02-16T06:06:18;20.88;;;13.00;;
75593;SDS011;64176;49.156;7.810;2023-02-16T06:09:03;25.80;;;13.68;;
75593;SDS011;64176;49.156;7.810;2023-02-16T06:11:51;21.25;;;13.73;;
75593;SDS011;64176;49.156;7.810;2023-02-16T06:14:37;22.92;;;13.50;;
75593;SDS011;64176;49.156;7.810;2023-02-16T06:17:21;22.83;;;13.73;;
75593;SDS011;64176;49.156;7.810;2023-02-16T06:20:06;23.27;;;14.70;;
75593;SDS011;64176;49.156;7.810;2023-02-16T06:22:53;25.02;;;18.27;;
75593;SDS011;64176;49.156;7.810;2023-02-16T06:25:40;28.33;;;17.60;;
75593;SDS011;64176;49.156;7.810;2023-02-16T06:28:25;20.88;;;14.60;;
75593;SDS011;64176;49.156;7.810;2023-02-16T06:31:12;20.30;;;13.77;;
75593;SDS011;64176;49.156;7.810;2023-02-16T06:33:56;24.88;;;15.52;;
75593;SDS011;64176;49.156;7.810;2023-02-16T06:36:42;20.00;;;13.50;;
75593;SDS011;64176;49.156;7.810;2023-02-16T06:39:26;23.05;;;15.00;;
75593;SDS011;64176;49.156;7.810;2023-02-16T06:42:10;19.60;;;13.27;;
75593;SDS011;64176;49.156;7.810;2023-02-16T06:44:54;16.65;;;12.13;;
75593;SDS011;64176;49.156;7.810;2023-02-16T06:47:38;20.77;;;12.95;;
75593;SDS011;64176;49.156;7.810;2023-02-16T06:50:21;19.73;;;14.30;;
75593;SDS011;64176;49.156;7.810;2023-02-16T06:53:05;22.02;;;14.40;;
75593;SDS011;64176;49.156;7.810;2023-02-16T06:55:52;22.13;;;15.15;;
75593;SDS011;64176;49.156;7.810;2023-02-16T06:58:36;27.20;;;16.10;;
75593;SDS011;64176;49.156;7.810;2023-02-16T07:01:20;24.90;;;16.10;;
75593;SDS011;64176;49.156;7.810;2023-02-16T07:04:08;23.50;;;15.55;;
75593;SDS011;64176;49.156;7.810;2023-02-16T07:06:52;24.70;;;15.10;;
75593;SDS011;64176;49.156;7.810;2023-02-16T07:09:36;31.10;;;16.73;;
75593;SDS011;64176;49.156;7.810;2023-02-16T07:12:25;23.40;;;15.48;;
75593;SDS011;64176;49.156;7.810;2023-02-16T07:15:09;26.55;;;15.40;;
75593;SDS011;64176;49.156;7.810;2023-02-16T07:17:56;30.23;;;19.02;;
75593;SDS011;64176;49.156;7.810;2023-02-16T07:20:43;26.88;;;15.75;;
75593;SDS011;64176;49.156;7.810;2023-02-16T07:23:27;27.70;;;16.05;;
75593;SDS011;64176;49.156;7.810;2023-02-16T07:26:13;31.45;;;16.98;;
75593;SDS011;64176;49.156;7.810;2023-02-16T07:29:02;27.52;;;16.67;;
75593;SDS011;64176;49.156;7.810;2023-02-16T07:31:46;27.63;;;17.58;;
75593;SDS011;64176;49.156;7.810;2023-02-16T07:34:33;27.35;;;18.23;;
75593;SDS011;64176;49.156;7.810;2023-02-16T07:37:17;28.83;;;17.60;;
75593;SDS011;64176;49.156;7.810;2023-02-16T07:40:01;29.33;;;18.23;;
75593;SDS011;64176;49.156;7.810;2023-02-16T07:42:45;22.58;;;15.43;;
75593;SDS011;64176;49.156;7.810;2023-02-16T07:45:30;22.80;;;16.10;;
75593;SDS011;64176;49.156;7.810;2023-02-16T07:48:17;25.73;;;15.77;;
75593;SDS011;64176;49.156;7.810;2023-02-16T07:51:04;20.17;;;14.15;;
75593;SDS011;64176;49.156;7.810;2023-02-16T07:53:48;22.13;;;14.63;;
75593;SDS011;64176;49.156;7.810;2023-02-16T07:56:35;21.60;;;13.48;;
75593;SDS011;64176;49.156;7.810;2023-02-16T07:59:27;29.23;;;18.65;;
75593;SDS011;64176;49.156;7.810;2023-02-16T08:02:14;25.58;;;17.05;;
75593;SDS011;64176;49.156;7.810;2023-02-16T08:04:59;29.05;;;17.35;;
75593;SDS011;64176;49.156;7.810;2023-02-16T08:07:43;22.88;;;14.98;;
75593;SDS011;64176;49.156;7.810;2023-02-16T08:10:30;23.40;;;15.07;;
75593;SDS011;64176;49.156;7.810;2023-02-16T08:13:17;41.08;;;25.55;;
75593;SDS011;64176;49.156;7.810;2023-02-16T08:16:11;29.70;;;18.40;;
75593;SDS011;64176;49.156;7.810;2023-02-16T08:18:58;36.53;;;21.27;;
75593;SDS011;64176;49.156;7.810;2023-02-16T08:21:43;33.75;;;22.70;;
75593;SDS011;64176;49.156;7.810;2023-02-16T08:24:32;31.55;;;20.25;;
75593;SDS011;64176;49.156;7.810;2023-02-16T08:27:16;31.75;;;19.73;;
75593;SDS011;64176;49.156;7.810;2023-02-16T08:30:02;36.95;;;25.90;;
75593;SDS011;64176;49.156;7.810;2023-02-16T08:35:37;34.72;;;20.95;;
75593;SDS011;64176;49.156;7.810;2023-02-16T08:38:21;53.95;;;30.27;;
75593;SDS011;64176;49.156;7.810;2023-02-16T08:41:07;41.53;;;28.02;;
75593;SDS011;64176;49.156;7.810;2023-02-16T08:43:54;21.13;;;13.23;;
75593;SDS011;64176;49.156;7.810;2023-02-16T08:46:44;26.05;;;15.85;;
75593;SDS011;64176;49.156;7.810;2023-02-16T08:49:30;24.10;;;17.90;;
75593;SDS011;64176;49.156;7.810;2023-02-16T08:52:14;23.65;;;16.23;;
75593;SDS011;64176;49.156;7.810;2023-02-16T08:55:01;25.25;;;17.70;;
75593;SDS011;64176;49.156;7.810;2023-02-16T08:57:46;21.30;;;15.77;;
75593;SDS011;64176;49.156;7.810;2023-02-16T09:00:35;27.00;;;16.80;;
75593;SDS011;64176;49.156;7.810;2023-02-16T09:03:23;21.88;;;14.85;;
75593;SDS011;64176;49.156;7.810;2023-02-16T09:06:08;26.10;;;19.95;;
75593;SDS011;64176;49.156;7.810;2023-02-16T09:08:55;23.80;;;15.68;;
75593;SDS011;64176;49.156;7.810;2023-02-16T09:11:42;28.00;;;21.35;;
75593;SDS011;64176;49.156;7.810;2023-02-16T09:14:26;30.60;;;21.60;;
75593;SDS011;64176;49.156;7.810;2023-02-16T09:17:10;25.17;;;17.17;;
75593;SDS011;64176;49.156;7.810;2023-02-16T09:19:57;25.10;;;18.30;;
75593;SDS011;64176;49.156;7.810;2023-02-16T09:22:43;28.73;;;20.52;;
75593;SDS011;64176;49.156;7.810;2023-02-16T09:25:30;36.42;;;22.83;;
75593;SDS011;64176;49.156;7.810;2023-02-16T09:28:17;31.85;;;22.08;;
75593;SDS011;64176;49.156;7.810;2023-02-16T09:31:11;24.40;;;16.48;;
75593;SDS011;64176;49.156;7.810;2023-02-16T09:34:01;25.52;;;15.18;;
75593;SDS011;64176;49.156;7.810;2023-02-16T09:36:48;21.38;;;14.25;;
75593;SDS011;64176;49.156;7.810;2023-02-16T09:39:40;19.05;;;14.02;;
75593;SDS011;64176;49.156;7.810;2023-02-16T09:42:29;22.88;;;16.50;;
75593;SDS011;64176;49.156;7.810;2023-02-16T09:45:31;25.40;;;17.58;;
75593;SDS011;64176;49.156;7.810;2023-02-16T09:48:38;26.13;;;17.65;;
75593;SDS011;64176;49.156;7.810;2023-02-16T09:51:27;24.95;;;17.30;;
75593;SDS011;64176;49.156;7.810;2023-02-16T09:54:32;26.05;;;17.88;;
75593;SDS011;64176;49.156;7.810;2023-02-16T09:57:32;26.85;;;17.48;;
75593;SDS011;64176;49.156;7.810;2023-02-16T10:03:24;19.38;;;14.30;;
75593;SDS011;64176;49.156;7.810;2023-02-16T10:09:37;19.23;;;13.43;;
75593;SDS011;64176;49.156;7.810;2023-02-16T10:12:23;15.73;;;11.10;;
75593;SDS011;64176;49.156;7.810;2023-02-16T10:15:20;22.52;;;12.13;;
75593;SDS011;64176;49.156;7.810;2023-02-16T10:21:31;16.13;;;10.00;;
75593;SDS011;64176;49.156;7.810;2023-02-16T10:24:15;15.90;;;10.23;;
75593;SDS011;64176;49.156;7.810;2023-02-16T10:27:04;19.38;;;10.43;;
75593;SDS011;64176;49.156;7.810;2023-02-16T10:29:53;13.82;;;8.88;;
75593;SDS011;64176;49.156;7.810;2023-02-16T10:33:29;15.82;;;9.32;;
75593;SDS011;64176;49.156;7.810;2023-02-16T10:47:57;10.77;;;7.78;;
75593;SDS011;64176;49.156;7.810;2023-02-16T10:50:42;12.55;;;8.13;;
75593;SDS011;64176;49.156;7.810;2023-02-16T10:53:38;10.98;;;6.47;;
75593;SDS011;64176;49.156;7.810;2023-02-16T10:59:24;9.48;;;5.43;;
75593;SDS011;64176;49.156;7.810;2023-02-16T11:02:26;9.25;;;5.95;;
75593;SDS011;64176;49.156;7.810;2023-02-16T11:05:37;10.82;;;6.45;;
75593;SDS011;64176;49.156;7.810;2023-02-16T11:08:25;11.38;;;6.03;;
75593;SDS011;64176;49.156;7.810;2023-02-16T11:11:39;8.02;;;4.70;;
75593;SDS011;64176;49.156;7.810;2023-02-16T11:14:30;7.28;;;5.07;;
75593;SDS011;64176;49.156;7.810;2023-02-16T11:17:15;11.10;;;6.07;;
75593;SDS011;64176;49.156;7.810;2023-02-16T11:20:02;6.15;;;4.68;;
75593;SDS011;64176;49.156;7.810;2023-02-16T11:28:53;7.35;;;4.93;;
75593;SDS011;64176;49.156;7.810;2023-02-16T11:32:04;7.32;;;4.63;;
75593;SDS011;64176;49.156;7.810;2023-02-16T11:34:54;7.28;;;5.28;;
75593;SDS011;64176;49.156;7.810;2023-02-16T11:37:42;8.27;;;4.93;;
75593;SDS011;64176;49.156;7.810;2023-02-16T11:40:27;7.78;;;4.68;;
75593;SDS011;64176;49.156;7.810;2023-02-16T11:43:15;6.25;;;4.40;;
75593;SDS011;64176;49.156;7.810;2023-02-16T11:46:06;6.07;;;4.43;;
75593;SDS011;64176;49.156;7.810;2023-02-16T11:48:56;6.13;;;4.35;;
75593;SDS011;64176;49.156;7.810;2023-02-16T11:52:47;8.70;;;4.20;;
75593;SDS011;64176;49.156;7.810;2023-02-16T11:55:21;7.80;;;4.22;;
75593;SDS011;64176;49.156;7.810;2023-02-16T11:58:17;6.65;;;4.68;;
75593;SDS011;64176;49.156;7.810;2023-02-16T12:10:34;6.40;;;4.18;;
75593;SDS011;64176;49.156;7.810;2023-02-16T12:19:38;7.85;;;4.38;;
75593;SDS011;64176;49.156;7.810;2023-02-16T12:31:56;6.43;;;3.72;;
75593;SDS011;64176;49.156;7.810;2023-02-16T12:41:20;6.68;;;3.53;;
75593;SDS011;64176;49.156;7.810;2023-02-16T12:44:16;6.18;;;4.28;;
75593;SDS011;64176;49.156;7.810;2023-02-16T12:47:09;5.30;;;4.15;;
75593;SDS011;64176;49.156;7.810;2023-02-16T12:50:01;7.15;;;3.97;;
75593;SDS011;64176;49.156;7.810;2023-02-16T12:52:51;6.55;;;4.15;;
75593;SDS011;64176;49.156;7.810;2023-02-16T12:55:44;7.55;;;4.25;;
75593;SDS011;64176;49.156;7.810;2023-02-16T12:58:39;5.28;;;3.90;;
75593;SDS011;64176;49.156;7.810;2023-02-16T13:01:30;6.68;;;4.35;;
75593;SDS011;64176;49.156;7.810;2023-02-16T13:04:32;5.38;;;3.50;;
75593;SDS011;64176;49.156;7.810;2023-02-16T13:07:30;7.22;;;4.03;;
75593;SDS011;64176;49.156;7.810;2023-02-16T13:10:22;6.65;;;3.90;;
75593;SDS011;64176;49.156;7.810;2023-02-16T13:13:11;6.38;;;4.30;;
75593;SDS011;64176;49.156;7.810;2023-02-16T13:18:49;5.97;;;3.50;;
75593;SDS011;64176;49.156;7.810;2023-02-16T13:27:49;5.60;;;3.53;;
75593;SDS011;64176;49.156;7.810;2023-02-16T13:34:11;5.80;;;4.22;;
75593;SDS011;64176;49.156;7.810;2023-02-16T13:43:32;6.13;;;3.83;;
75593;SDS011;64176;49.156;7.810;2023-02-16T13:52:27;6.68;;;3.90;;
75593;SDS011;64176;49.156;7.810;2023-02-16T13:55:32;5.35;;;3.90;;
75593;SDS011;64176;49.156;7.810;2023-02-16T13:58:29;5.30;;;3.85;;
75593;SDS011;64176;49.156;7.810;2023-02-16T14:10:01;6.07;;;3.72;;
75593;SDS011;64176;49.156;7.810;2023-02-16T14:12:47;6.53;;;4.60;;
75593;SDS011;64176;49.156;7.810;2023-02-16T14:15:32;8.35;;;5.20;;
75593;SDS011;64176;49.156;7.810;2023-02-16T14:21:34;6.93;;;3.83;;
75593;SDS011;64176;49.156;7.810;2023-02-16T14:27:09;6.50;;;4.03;;
75593;SDS011;64176;49.156;7.810;2023-02-16T14:29:56;12.38;;;4.43;;
75593;SDS011;64176;49.156;7.810;2023-02-16T14:32:46;6.57;;;3.60;;
75593;SDS011;64176;49.156;7.810;2023-02-16T14:35:35;9.07;;;4.25;;
75593;SDS011;64176;49.156;7.810;2023-02-16T14:44:24;6.90;;;5.32;;
75593;SDS011;64176;49.156;7.810;2023-02-16T14:54:31;6.90;;;4.55;;
75593;SDS011;64176;49.156;7.810;2023-02-16T15:03:42;5.22;;;4.30;;
75593;SDS011;64176;49.156;7.810;2023-02-16T15:06:38;7.85;;;4.80;;
75593;SDS011;64176;49.156;7.810;2023-02-16T15:09:26;9.05;;;4.75;;
75593;SDS011;64176;49.156;7.810;2023-02-16T15:12:13;5.30;;;3.38;;
75593;SDS011;64176;49.156;7.810;2023-02-16T15:15:12;6.90;;;5.25;;
75593;SDS011;64176;49.156;7.810;2023-02-16T15:18:11;8.25;;;4.90;;
75593;SDS011;64176;49.156;7.810;2023-02-16T15:20:58;9.40;;;4.70;;
75593;SDS011;64176;49.156;7.810;2023-02-16T15:23:46;7.50;;;4.63;;
75593;SDS011;64176;49.156;7.810;2023-02-16T15:26:38;8.07;;;4.15;;
75593;SDS011;64176;49.156;7.810;2023-02-16T15:29:23;5.82;;;4.43;;
75593;SDS011;64176;49.156;7.810;2023-02-16T15:32:11;5.57;;;3.75;;
75593;SDS011;64176;49.156;7.810;2023-02-16T15:35:20;8.52;;;4.57;;
75593;SDS011;64176;49.156;7.810;2023-02-16T15:41:07;6.10;;;4.47;;
75593;SDS011;64176;49.156;7.810;2023-02-16T15:43:56;9.27;;;6.68;;
75593;SDS011;64176;49.156;7.810;2023-02-16T15:46:46;8.27;;;5.13;;
75593;SDS011;64176;49.156;7.810;2023-02-16T15:49:36;6.78;;;4.97;;
75593;SDS011;64176;49.156;7.810;2023-02-16T15:52:31;8.93;;;5.88;;
75593;SDS011;64176;49.156;7.810;2023-02-16T15:55:17;6.95;;;4.88;;
75593;SDS011;64176;49.156;7.810;2023-02-16T15:58:01;7.18;;;4.63;;
75593;SDS011;64176;49.156;7.810;2023-02-16T16:00:48;18.77;;;9.70;;
75593;SDS011;64176;49.156;7.810;2023-02-16T16:03:32;8.75;;;4.72;;
75593;SDS011;64176;49.156;7.810;2023-02-16T16:06:19;10.07;;;6.32;;
75593;SDS011;64176;49.156;7.810;2023-02-16T16:09:03;10.05;;;6.43;;
75593;SDS011;64176;49.156;7.810;2023-02-16T16:11:55;10.15;;;5.90;;
75593;SDS011;64176;49.156;7.810;2023-02-16T16:14:43;9.07;;;5.40;;
75593;SDS011;64176;49.156;7.810;2023-02-16T16:17:51;10.52;;;7.18;;
75593;SDS011;64176;49.156;7.810;2023-02-16T16:20:37;8.27;;;5.05;;
75593;SDS011;64176;49.156;7.810;2023-02-16T16:23:24;10.90;;;5.38;;
75593;SDS011;64176;49.156;7.810;2023-02-16T16:26:15;7.22;;;5.07;;
75593;SDS011;64176;49.156;7.810;2023-02-16T16:29:04;6.97;;;4.63;;
75593;SDS011;64176;49.156;7.810;2023-02-16T16:32:25;8.48;;;5.22;;
75593;SDS011;64176;49.156;7.810;2023-02-16T16:35:29;6.85;;;5.80;;
75593;SDS011;64176;49.156;7.810;2023-02-16T16:38:22;5.40;;;4.45;;
75593;SDS011;64176;49.156;7.810;2023-02-16T16:41:09;7.40;;;5.18;;
75593;SDS011;64176;49.156;7.810;2023-02-16T16:44:12;7.68;;;4.35;;
75593;SDS011;64176;49.156;7.810;2023-02-16T16:52:54;8.98;;;4.95;;
75593;SDS011;64176;49.156;7.810;2023-02-16T16:55:41;7.68;;;4.90;;
75593;SDS011;64176;49.156;7.810;2023-02-16T16:58:25;8.32;;;4.93;;
75593;SDS011;64176;49.156;7.810;2023-02-16T17:01:11;8.73;;;6.20;;
75593;SDS011;64176;49.156;7.810;2023-02-16T17:03:58;7.15;;;5.18;;
75593;SDS011;64176;49.156;7.810;2023-02-16T17:06:43;11.75;;;6.57;;
75593;SDS011;64176;49.156;7.810;2023-02-16T17:09:27;8.32;;;4.60;;
75593;SDS011;64176;49.156;7.810;2023-02-16T17:12:11;6.85;;;5.00;;
75593;SDS011;64176;49.156;7.810;2023-02-16T17:15:03;14.90;;;7.70;;
75593;SDS011;64176;49.156;7.810;2023-02-16T17:17:50;11.43;;;8.25;;
75593;SDS011;64176;49.156;7.810;2023-02-16T17:20:34;16.60;;;7.88;;
75593;SDS011;64176;49.156;7.810;2023-02-16T17:23:21;12.00;;;8.27;;
75593;SDS011;64176;49.156;7.810;2023-02-16T17:26:08;9.18;;;4.60;;
75593;SDS011;64176;49.156;7.810;2023-02-16T17:28:52;10.45;;;6.20;;
75593;SDS011;64176;49.156;7.810;2023-02-16T17:31:36;8.70;;;6.95;;
75593;SDS011;64176;49.156;7.810;2023-02-16T17:34:20;9.38;;;7.18;;
75593;SDS011;64176;49.156;7.810;2023-02-16T17:37:11;8.07;;;5.95;;
75593;SDS011;64176;49.156;7.810;2023-02-16T17:40:00;11.15;;;6.78;;
75593;SDS011;64176;49.156;7.810;2023-02-16T17:42:45;9.52;;;6.55;;
75593;SDS011;64176;49.156;7.810;2023-02-16T17:45:30;7.80;;;5.32;;
75593;SDS011;64176;49.156;7.810;2023-02-16T17:48:23;9.00;;;6.07;;
75593;SDS011;64176;49.156;7.810;2023-02-16T17:51:15;12.68;;;9.00;;
75593;SDS011;64176;49.156;7.810;2023-02-16T17:54:02;13.25;;;8.35;;
75593;SDS011;64176;49.156;7.810;2023-02-16T17:56:46;11.10;;;7.40;;
75593;SDS011;64176;49.156;7.810;2023-02-16T17:59:33;12.10;;;7.85;;
75593;SDS011;64176;49.156;7.810;2023-02-16T18:02:17;14.18;;;9.38;;
75593;SDS011;64176;49.156;7.810;2023-02-16T18:05:03;15.38;;;10.30;;
75593;SDS011;64176;49.156;7.810;2023-02-16T18:07:50;18.38;;;11.30;;
75593;SDS011;64176;49.156;7.810;2023-02-16T18:10:44;15.75;;;10.02;;
75593;SDS011;64176;49.156;7.810;2023-02-16T18:13:32;13.13;;;9.05;;
75593;SDS011;64176;49.156;7.810;2023-02-16T18:16:17;16.52;;;10.40;;
75593;SDS011;64176;49.156;7.810;2023-02-16T18:19:08;12.95;;;8.60;;
75593;SDS011;64176;49.156;7.810;2023-02-16T18:21:59;9.25;;;6.30;;
75593;SDS011;64176;49.156;7.810;2023-02-16T18:24:44;9.70;;;6.82;;
75593;SDS011;64176;49.156;7.810;2023-02-16T18:27:30;10.32;;;6.40;;
75593;SDS011;64176;49.156;7.810;2023-02-16T18:30:14;13.75;;;8.80;;
75593;SDS011;64176;49.156;7.810;2023-02-16T18:33:01;12.32;;;9.35;;
75593;SDS011;64176;49.156;7.810;2023-02-16T18:35:53;15.93;;;10.95;;
75593;SDS011;64176;49.156;7.810;2023-02-16T18:38:41;11.32;;;8.07;;
75593;SDS011;64176;49.156;7.810;2023-02-16T18:41:25;14.45;;;7.95;;
75593;SDS011;64176;49.156;7.810;2023-02-16T18:44:12;18.77;;;11.48;;
75593;SDS011;64176;49.156;7.810;2023-02-16T18:46:56;19.90;;;15.75;;
75593;SDS011;64176;49.156;7.810;2023-02-16T18:49:42;26.95;;;16.67;;
75593;SDS011;64176;49.156;7.810;2023-02-16T18:52:29;19.40;;;16.20;;
75593;SDS011;64176;49.156;7.810;2023-02-16T18:55:15;18.92;;;12.90;;
75593;SDS011;64176;49.156;7.810;2023-02-16T18:58:03;14.90;;;12.93;;
75593;SDS011;64176;49.156;7.810;2023-02-16T19:00:51;16.10;;;12.15;;
75593;SDS011;64176;49.156;7.810;2023-02-16T19:03:37;15.80;;;13.32;;
75593;SDS011;64176;49.156;7.810;2023-02-16T19:06:24;16.95;;;14.55;;
75593;SDS011;64176;49.156;7.810;2023-02-16T19:09:11;16.33;;;13.95;;
75593;SDS011;64176;49.156;7.810;2023-02-16T19:11:55;19.23;;;14.65;;
75593;SDS011;64176;49.156;7.810;2023-02-16T19:14:39;20.13;;;15.02;;
75593;SDS011;64176;49.156;7.810;2023-02-16T19:17:23;16.95;;;12.82;;
75593;SDS011;64176;49.156;7.810;2023-02-16T19:20:07;22.85;;;17.05;;